createdAt,value
2023-03-29T00:02:03.416Z,2.92
2023-03-29T00:04:30.069Z,3.17
2023-03-29T00:06:56.845Z,3.47
2023-03-29T00:09:23.556Z,3.47
2023-03-29T00:11:50.357Z,3.17
2023-03-29T00:14:17.009Z,3.13
2023-03-29T00:16:44.987Z,2.85
2023-03-29T00:19:11.661Z,3.10
2023-03-29T00:21:38.378Z,3.40
2023-03-29T00:24:05.101Z,3.03
2023-03-29T00:26:31.654Z,3.05
2023-03-29T00:28:58.174Z,3.15
2023-03-29T00:31:24.760Z,2.55
2023-03-29T00:33:51.419Z,3.10
2023-03-29T00:36:18.131Z,3.17
2023-03-29T00:38:44.657Z,3.15
2023-03-29T00:41:11.809Z,2.95
2023-03-29T00:43:58.692Z,3.50
2023-03-29T00:46:27.232Z,3.40
2023-03-29T00:48:58.388Z,2.97
2023-03-29T00:51:28.275Z,2.53
2023-03-29T00:53:59.794Z,3.10
2023-03-29T00:56:29.900Z,2.92
2023-03-29T00:59:09.506Z,3.40
2023-03-29T01:02:02.142Z,2.72
2023-03-29T01:04:36.926Z,2.10
2023-03-29T01:07:09.481Z,1.75
2023-03-29T01:09:40.119Z,1.88
2023-03-29T01:12:20.849Z,2.50
2023-03-29T01:14:55.088Z,2.00
2023-03-29T01:17:22.026Z,1.83
2023-03-29T01:19:58.149Z,2.53
2023-03-29T01:22:28.252Z,2.70
2023-03-29T01:25:12.551Z,1.95
2023-03-29T01:28:12.981Z,2.10
2023-03-29T01:33:21.300Z,1.63
2023-03-29T01:36:17.435Z,2.30
2023-03-29T01:38:50.685Z,2.03
2023-03-29T01:41:17.284Z,1.98
2023-03-29T01:43:46.838Z,2.30
2023-03-29T01:49:03.553Z,1.85
2023-03-29T01:51:38.545Z,1.60
2023-03-29T01:54:12.775Z,1.88
2023-03-29T01:56:42.193Z,2.17
2023-03-29T01:59:13.980Z,2.13
2023-03-29T02:01:49.677Z,1.60
2023-03-29T02:06:46.721Z,1.80
2023-03-29T02:09:13.644Z,2.10
2023-03-29T02:11:44.896Z,2.03
2023-03-29T02:14:11.584Z,2.47
2023-03-29T02:16:39.144Z,2.00
2023-03-29T02:19:08.244Z,1.23
2023-03-29T02:21:48.162Z,1.83
2023-03-29T02:24:18.034Z,1.20
2023-03-29T02:26:44.774Z,2.35
2023-03-29T02:29:11.704Z,1.77
2023-03-29T02:31:43.710Z,1.42
2023-03-29T02:34:13.257Z,2.13
2023-03-29T02:36:55.453Z,1.80
2023-03-29T02:39:25.281Z,0.95
2023-03-29T02:41:53.612Z,2.50
2023-03-29T02:44:24.283Z,2.20
2023-03-29T02:46:56.634Z,1.80
2023-03-29T02:49:23.939Z,2.03
2023-03-29T02:51:54.853Z,1.92
2023-03-29T02:54:29.880Z,1.48
2023-03-29T02:57:01.754Z,2.22
2023-03-29T02:59:29.962Z,1.73
2023-03-29T03:01:56.744Z,1.52
2023-03-29T03:04:23.425Z,1.85
2023-03-29T03:06:50.054Z,2.03
2023-03-29T03:09:17.158Z,1.70
2023-03-29T03:11:44.074Z,2.38
2023-03-29T03:14:11.016Z,2.22
2023-03-29T03:16:37.634Z,2.25
2023-03-29T03:19:06.005Z,2.20
2023-03-29T03:21:33.549Z,2.30
2023-03-29T03:24:00.127Z,1.73
2023-03-29T03:26:30.179Z,1.75
2023-03-29T03:28:57.107Z,2.60
2023-03-29T03:31:24.450Z,2.25
2023-03-29T03:33:50.961Z,1.95
2023-03-29T03:36:17.470Z,2.08
2023-03-29T03:38:44.149Z,2.17
2023-03-29T03:41:10.827Z,2.53
2023-03-29T03:43:37.490Z,1.70
2023-03-29T03:46:04.302Z,2.08
2023-03-29T03:48:31.636Z,2.45
2023-03-29T03:50:59.143Z,3.00
2023-03-29T03:53:27.318Z,2.80
2023-03-29T03:55:56.028Z,2.60
2023-03-29T03:58:22.870Z,2.70
2023-03-29T04:00:50.696Z,2.42
2023-03-29T04:03:17.949Z,2.17
2023-03-29T04:05:46.122Z,2.78
2023-03-29T04:08:13.498Z,2.95
2023-03-29T04:10:40.639Z,2.05
2023-03-29T04:13:07.724Z,2.97
2023-03-29T04:15:38.742Z,2.95
2023-03-29T04:18:07.490Z,2.80
2023-03-29T04:20:34.338Z,2.78
2023-03-29T04:23:01.050Z,2.45
2023-03-29T04:25:27.635Z,2.30
2023-03-29T04:27:54.216Z,1.73
2023-03-29T04:30:21.086Z,2.60
2023-03-29T04:32:47.963Z,3.00
2023-03-29T04:35:14.702Z,3.42
2023-03-29T04:37:41.821Z,2.00
2023-03-29T04:40:09.998Z,2.53
2023-03-29T04:42:37.682Z,1.73
2023-03-29T04:45:07.215Z,3.55
2023-03-29T04:50:03.428Z,1.38
2023-03-29T04:52:33.144Z,2.83
2023-03-29T04:55:04.855Z,3.65
2023-03-29T04:57:31.665Z,0.68
2023-03-29T04:59:58.261Z,3.33
2023-03-29T05:02:24.839Z,3.08
2023-03-29T05:04:51.458Z,3.25
2023-03-29T05:07:19.131Z,2.42
2023-03-29T05:09:45.682Z,3.92
2023-03-29T05:12:12.271Z,3.55
2023-03-29T05:14:38.815Z,2.28
2023-03-29T05:17:06.420Z,3.05
2023-03-29T05:19:33.631Z,2.85
2023-03-29T05:22:00.770Z,2.55
2023-03-29T05:24:27.432Z,3.92
2023-03-29T05:26:53.943Z,2.95
2023-03-29T05:29:20.669Z,3.28
2023-03-29T05:31:47.298Z,4.20
2023-03-29T05:34:13.865Z,3.10
2023-03-29T05:36:40.435Z,3.67
2023-03-29T05:39:07.424Z,2.90
2023-03-29T05:41:34.552Z,2.25
2023-03-29T05:44:01.595Z,3.08
2023-03-29T05:46:28.180Z,3.58
2023-03-29T05:48:54.733Z,4.20
2023-03-29T05:51:24.364Z,1.40
2023-03-29T05:53:51.713Z,3.25
2023-03-29T05:56:19.099Z,3.60
2023-03-29T05:58:49.516Z,2.40
2023-03-29T06:01:18.732Z,2.92
2023-03-29T06:03:48.162Z,3.35
2023-03-29T06:06:16.495Z,3.30
2023-03-29T06:08:44.181Z,3.40
2023-03-29T06:11:13.336Z,3.40
2023-03-29T06:13:42.204Z,2.63
2023-03-29T06:16:10.575Z,2.55
2023-03-29T06:18:38.143Z,3.53
2023-03-29T06:21:05.106Z,3.45
2023-03-29T06:23:32.119Z,3.00
2023-03-29T06:26:00.146Z,3.33
2023-03-29T06:28:26.844Z,3.10
2023-03-29T06:31:02.722Z,2.92
2023-03-29T06:33:30.838Z,3.47
2023-03-29T06:35:57.694Z,2.75
2023-03-29T06:38:45.957Z,2.63
2023-03-29T06:41:12.670Z,2.95
2023-03-29T06:43:39.374Z,3.40
2023-03-29T06:46:11.773Z,3.00
2023-03-29T06:48:39.515Z,3.30
2023-03-29T06:51:07.591Z,3.17
2023-03-29T06:53:34.706Z,3.03
2023-03-29T06:56:05.325Z,2.75
2023-03-29T06:58:31.912Z,3.53
2023-03-29T07:01:02.576Z,3.42
2023-03-29T07:03:29.960Z,3.22
2023-03-29T07:06:03.539Z,3.40
2023-03-29T07:08:35.210Z,3.15
2023-03-29T07:11:03.282Z,2.30
2023-03-29T07:13:30.490Z,2.80
2023-03-29T07:15:57.496Z,2.90
2023-03-29T07:18:24.093Z,2.55
2023-03-29T07:20:52.078Z,2.85
2023-03-29T07:23:18.686Z,2.60
2023-03-29T07:25:45.326Z,2.90
2023-03-29T07:28:11.858Z,3.33
2023-03-29T07:30:38.512Z,3.08
2023-03-29T07:33:05.148Z,2.90
2023-03-29T07:35:32.794Z,3.03
2023-03-29T07:37:59.586Z,2.97
2023-03-29T07:40:27.216Z,2.83
2023-03-29T07:42:56.649Z,3.22
2023-03-29T07:45:27.537Z,3.00
2023-03-29T07:47:57.175Z,2.67
2023-03-29T07:50:24.726Z,2.80
2023-03-29T07:52:51.620Z,2.45
2023-03-29T07:55:18.501Z,2.60
2023-03-29T07:57:45.285Z,2.50
2023-03-29T08:00:16.832Z,2.63
2023-03-29T08:02:47.988Z,2.17
2023-03-29T08:05:18.972Z,2.75
2023-03-29T08:07:50.526Z,2.30
2023-03-29T08:10:19.335Z,2.60
2023-03-29T08:12:49.399Z,2.80
2023-03-29T08:15:16.623Z,2.80
2023-03-29T08:17:43.632Z,2.53
2023-03-29T08:20:13.485Z,1.52
2023-03-29T08:22:40.427Z,2.53
2023-03-29T08:25:07.820Z,1.90
2023-03-29T08:27:35.133Z,1.23
2023-03-29T08:30:01.683Z,2.55
2023-03-29T08:32:28.282Z,1.98
2023-03-29T08:34:55.108Z,2.53
2023-03-29T08:37:21.905Z,2.45
2023-03-29T08:39:48.490Z,2.45
2023-03-29T08:42:30.024Z,2.13
2023-03-29T08:45:33.829Z,2.78
2023-03-29T08:48:23.790Z,2.13
2023-03-29T08:50:54.192Z,2.55
2023-03-29T08:53:28.873Z,2.80
2023-03-29T08:55:59.746Z,2.80
2023-03-29T08:58:31.506Z,2.75
2023-03-29T09:01:00.751Z,2.70
2023-03-29T09:03:35.654Z,2.38
2023-03-29T09:06:10.855Z,2.95
2023-03-29T09:08:45.110Z,2.72
2023-03-29T09:11:23.547Z,3.03
2023-03-29T09:14:22.140Z,3.10
2023-03-29T09:17:13.516Z,2.60
2023-03-29T09:20:03.194Z,2.20
2023-03-29T09:22:47.249Z,2.78
2023-03-29T09:25:53.639Z,3.35
2023-03-29T09:28:31.069Z,3.33
2023-03-29T09:31:06.048Z,3.10
2023-03-29T09:33:44.253Z,3.03
2023-03-29T09:36:30.957Z,3.00
2023-03-29T09:38:57.488Z,3.22
2023-03-29T09:41:44.071Z,3.20
2023-03-29T09:46:54.233Z,2.97
2023-03-29T09:49:26.691Z,2.97
2023-03-29T09:51:57.482Z,2.95
2023-03-29T09:54:24.288Z,2.83
2023-03-29T09:56:52.741Z,2.80
2023-03-29T09:59:19.462Z,3.10
2023-03-29T10:01:46.149Z,2.88
2023-03-29T10:04:13.821Z,2.80
2023-03-29T10:06:50.284Z,3.08
2023-03-29T10:09:20.875Z,3.22
2023-03-29T10:11:55.163Z,2.92
2023-03-29T10:14:33.850Z,2.60
2023-03-29T10:17:00.675Z,2.90
2023-03-29T10:19:35.242Z,3.22
2023-03-29T10:22:08.099Z,3.70
2023-03-29T10:24:34.645Z,3.08
2023-03-29T10:27:04.475Z,2.70
2023-03-29T10:29:42.335Z,2.50
2023-03-29T10:32:24.037Z,2.97
2023-03-29T10:34:52.111Z,2.80
2023-03-29T10:37:19.797Z,3.13
2023-03-29T10:39:48.129Z,2.78
2023-03-29T10:42:20.481Z,2.80
2023-03-29T10:44:56.818Z,3.10
2023-03-29T10:47:24.170Z,3.03
2023-03-29T10:49:56.479Z,2.50
2023-03-29T10:52:23.647Z,3.00
2023-03-29T10:54:52.864Z,2.50
2023-03-29T10:57:48.543Z,2.00
2023-03-29T11:00:23.675Z,1.90
2023-03-29T11:03:07.509Z,2.35
2023-03-29T11:05:44.885Z,2.20
2023-03-29T11:08:28.492Z,2.17
2023-03-29T11:11:18.711Z,2.30
2023-03-29T11:14:02.253Z,1.92
2023-03-29T11:16:50.992Z,2.40
2023-03-29T11:19:35.895Z,1.90
2023-03-29T11:22:09.797Z,1.92
2023-03-29T11:24:39.330Z,2.33
2023-03-29T11:27:24.264Z,1.92
2023-03-29T11:30:03.269Z,2.25
2023-03-29T11:32:41.997Z,2.28
2023-03-29T11:35:24.656Z,1.92
2023-03-29T11:37:57.239Z,1.92
2023-03-29T11:40:45.469Z,2.78
2023-03-29T11:43:20.845Z,3.13
2023-03-29T11:45:55.887Z,2.83
2023-03-29T11:48:29.890Z,3.33
2023-03-29T11:51:26.523Z,4.20
2023-03-29T11:54:03.337Z,3.55
2023-03-29T11:56:32.950Z,3.53
2023-03-29T11:59:07.467Z,3.92
2023-03-29T12:01:42.299Z,3.63
2023-03-29T12:04:27.328Z,3.45
2023-03-29T12:07:18.910Z,3.88
2023-03-29T12:09:53.237Z,3.60
2023-03-29T12:12:27.157Z,4.40
2023-03-29T12:15:04.847Z,3.55
2023-03-29T12:17:37.944Z,4.40
2023-03-29T12:20:23.410Z,4.70
2023-03-29T12:22:50.982Z,4.55
2023-03-29T12:25:23.940Z,4.82
2023-03-29T12:28:08.890Z,6.03
2023-03-29T12:30:55.123Z,4.43
2023-03-29T12:33:32.709Z,5.15
2023-03-29T12:36:16.589Z,4.50
2023-03-29T12:38:45.000Z,4.55
2023-03-29T12:41:19.868Z,4.28
2023-03-29T12:43:46.989Z,3.72
2023-03-29T12:46:25.619Z,4.65
2023-03-29T12:48:58.490Z,4.65
2023-03-29T12:51:33.072Z,5.32
2023-03-29T12:54:07.368Z,6.05
2023-03-29T12:56:42.054Z,6.10
2023-03-29T12:59:25.648Z,6.47
2023-03-29T13:01:58.998Z,6.53
2023-03-29T13:04:37.521Z,6.60
2023-03-29T13:07:04.535Z,6.15
2023-03-29T13:09:36.678Z,6.15
2023-03-29T13:12:15.762Z,6.15
2023-03-29T13:14:50.964Z,6.28
2023-03-29T13:17:41.756Z,6.63
2023-03-29T13:20:14.231Z,6.15
2023-03-29T13:22:59.645Z,6.35
2023-03-29T13:26:02.237Z,5.85
2023-03-29T13:29:04.754Z,7.15
2023-03-29T13:31:46.744Z,6.80
2023-03-29T13:34:40.362Z,6.53
2023-03-29T13:37:22.069Z,6.63
2023-03-29T13:39:51.663Z,6.82
2023-03-29T13:42:21.583Z,6.32
2023-03-29T13:44:51.546Z,7.38
2023-03-29T13:48:04.331Z,7.43
2023-03-29T13:50:40.737Z,6.57
2023-03-29T13:53:19.763Z,7.30
2023-03-29T13:55:51.061Z,6.75
2023-03-29T13:58:43.485Z,7.53
2023-03-29T14:01:17.080Z,7.13
2023-03-29T14:03:46.846Z,7.13
2023-03-29T14:06:17.676Z,7.35
2023-03-29T14:08:44.815Z,7.10
2023-03-29T14:11:25.069Z,7.38
2023-03-29T14:13:57.072Z,7.35
2023-03-29T14:16:31.597Z,7.28
2023-03-29T14:19:21.562Z,6.88
2023-03-29T14:21:52.132Z,7.22
2023-03-29T14:24:26.036Z,6.65
2023-03-29T14:26:54.021Z,7.07
2023-03-29T14:29:21.902Z,6.78
2023-03-29T14:31:50.280Z,6.55
2023-03-29T14:34:18.598Z,5.82
2023-03-29T14:36:48.772Z,5.80
2023-03-29T14:39:23.412Z,7.38
2023-03-29T14:41:55.394Z,7.55
2023-03-29T14:44:24.847Z,6.57
2023-03-29T14:46:51.962Z,5.95
2023-03-29T14:49:20.708Z,6.10
2023-03-29T14:51:49.244Z,6.55
2023-03-29T14:54:26.944Z,6.35
2023-03-29T14:56:54.106Z,6.30
2023-03-29T14:59:27.113Z,5.50
2023-03-29T15:01:53.975Z,6.10
2023-03-29T15:04:20.807Z,5.30
2023-03-29T15:06:50.619Z,5.65
2023-03-29T15:09:29.976Z,5.45
2023-03-29T15:11:59.914Z,5.15
2023-03-29T15:14:33.706Z,6.03
2023-03-29T15:17:24.075Z,4.68
2023-03-29T15:19:59.715Z,4.97
2023-03-29T15:22:34.251Z,5.05
2023-03-29T15:25:01.712Z,5.45
2023-03-29T15:27:28.657Z,5.07
2023-03-29T15:30:04.627Z,4.32
2023-03-29T15:32:35.149Z,4.55
2023-03-29T15:37:29.325Z,4.72
2023-03-29T15:39:56.718Z,4.22
2023-03-29T15:42:24.470Z,4.80
2023-03-29T15:44:54.999Z,5.22
2023-03-29T15:47:22.103Z,4.65
2023-03-29T15:49:48.668Z,4.35
2023-03-29T15:52:15.398Z,4.45
2023-03-29T15:54:42.430Z,4.95
2023-03-29T15:57:13.877Z,4.50
2023-03-29T15:59:40.928Z,4.20
2023-03-29T16:02:15.704Z,4.25
2023-03-29T16:04:43.313Z,5.07
2023-03-29T16:07:15.975Z,6.15
2023-03-29T16:09:43.689Z,4.82
2023-03-29T16:12:10.402Z,5.68
2023-03-29T16:14:37.267Z,4.75
2023-03-29T16:17:04.787Z,4.25
2023-03-29T16:19:36.371Z,4.03
2023-03-29T16:22:07.094Z,4.40
2023-03-29T16:24:35.191Z,4.28
2023-03-29T16:27:02.714Z,3.90
2023-03-29T16:29:29.708Z,4.35
2023-03-29T16:31:57.198Z,4.80
2023-03-29T16:34:24.191Z,3.78
2023-03-29T16:36:50.918Z,4.95
2023-03-29T16:39:18.266Z,4.10
2023-03-29T16:41:48.350Z,4.22
2023-03-29T16:44:23.621Z,4.25
2023-03-29T16:46:54.349Z,4.07
2023-03-29T16:49:21.548Z,3.90
2023-03-29T16:51:48.275Z,3.83
2023-03-29T16:54:17.210Z,4.35
2023-03-29T16:56:43.801Z,4.10
2023-03-29T16:59:10.512Z,5.07
2023-03-29T17:01:37.277Z,4.82
2023-03-29T17:04:04.556Z,5.80
2023-03-29T17:06:32.661Z,5.90
2023-03-29T17:09:00.619Z,7.28
2023-03-29T17:11:28.410Z,5.68
2023-03-29T17:13:55.785Z,5.93
2023-03-29T17:16:22.465Z,5.75
2023-03-29T17:18:49.152Z,6.13
2023-03-29T17:21:16.104Z,5.88
2023-03-29T17:23:42.955Z,5.82
2023-03-29T17:26:09.543Z,6.05
2023-03-29T17:28:36.241Z,6.25
2023-03-29T17:31:05.190Z,6.65
2023-03-29T17:33:35.053Z,7.28
2023-03-29T17:36:02.348Z,6.88
2023-03-29T17:38:30.688Z,6.18
2023-03-29T17:40:57.265Z,7.00
2023-03-29T17:43:23.939Z,6.75
2023-03-29T17:45:52.021Z,7.72
2023-03-29T17:48:19.372Z,7.45
2023-03-29T17:50:46.005Z,7.25
2023-03-29T17:53:13.413Z,7.63
2023-03-29T17:55:40.961Z,8.52
2023-03-29T17:58:07.865Z,8.63
2023-03-29T18:00:34.614Z,8.63
2023-03-29T18:03:01.316Z,9.20
2023-03-29T18:05:27.967Z,8.15
2023-03-29T18:08:08.171Z,9.18
2023-03-29T18:10:36.764Z,10.75
2023-03-29T18:13:03.624Z,10.15
2023-03-29T18:15:30.349Z,8.85
2023-03-29T18:17:57.744Z,9.50
2023-03-29T18:20:24.315Z,9.35
2023-03-29T18:22:51.151Z,8.40
2023-03-29T18:25:18.330Z,8.77
2023-03-29T18:27:45.001Z,8.95
2023-03-29T18:30:13.882Z,8.70
2023-03-29T18:32:40.588Z,8.85
2023-03-29T18:35:07.655Z,8.45
2023-03-29T18:37:34.278Z,8.32
2023-03-29T18:40:00.970Z,9.07
2023-03-29T18:42:27.564Z,8.75
2023-03-29T18:44:54.127Z,7.53
2023-03-29T18:47:20.697Z,8.18
2023-03-29T18:49:47.274Z,8.85
2023-03-29T18:52:15.956Z,8.60
2023-03-29T18:54:42.567Z,8.77
2023-03-29T18:57:09.383Z,7.57
2023-03-29T18:59:36.576Z,8.68
2023-03-29T19:02:03.368Z,8.63
2023-03-29T19:04:30.034Z,8.23
2023-03-29T19:06:56.667Z,8.18
2023-03-29T19:09:23.227Z,8.80
2023-03-29T19:11:49.838Z,8.73
2023-03-29T19:14:17.434Z,8.80
2023-03-29T19:16:44.018Z,8.80
2023-03-29T19:19:10.759Z,8.95
2023-03-29T19:21:38.529Z,8.43
2023-03-29T19:24:07.660Z,7.65
2023-03-29T19:26:34.352Z,8.32
2023-03-29T19:29:01.132Z,8.48
2023-03-29T19:31:27.912Z,7.93
2023-03-29T19:33:55.021Z,8.02
2023-03-29T19:36:22.204Z,7.70
2023-03-29T19:38:48.793Z,7.32
2023-03-29T19:41:15.319Z,8.13
2023-03-29T19:43:41.971Z,8.05
2023-03-29T19:46:11.052Z,7.53
2023-03-29T19:48:39.232Z,8.48
2023-03-29T19:51:06.041Z,7.35
2023-03-29T19:53:32.862Z,8.15
2023-03-29T19:55:59.659Z,8.50
2023-03-29T19:58:26.200Z,8.10
2023-03-29T20:00:53.891Z,7.53
2023-03-29T20:03:21.792Z,8.45
2023-03-29T20:05:48.336Z,7.97
2023-03-29T20:08:14.865Z,8.20
2023-03-29T20:10:41.599Z,7.05
2023-03-29T20:13:08.324Z,7.90
2023-03-29T20:15:35.317Z,7.68
2023-03-29T20:18:02.013Z,7.68
2023-03-29T20:20:29.923Z,7.82
2023-03-29T20:23:04.672Z,6.13
2023-03-29T20:25:32.399Z,6.78
2023-03-29T20:27:59.671Z,6.70
2023-03-29T20:30:26.556Z,7.43
2023-03-29T20:32:53.320Z,7.68
2023-03-29T20:35:19.949Z,7.50
2023-03-29T20:37:46.444Z,6.85
2023-03-29T20:40:15.624Z,6.68
2023-03-29T20:42:42.533Z,5.68
2023-03-29T20:45:18.670Z,6.85
2023-03-29T20:47:57.472Z,6.80
2023-03-29T20:50:28.815Z,6.85
2023-03-29T20:52:56.645Z,6.78
2023-03-29T20:55:23.516Z,6.18
2023-03-29T20:57:54.067Z,6.35
2023-03-29T21:00:21.009Z,6.80
2023-03-29T21:02:47.729Z,7.50
2023-03-29T21:05:15.295Z,7.47
2023-03-29T21:07:44.740Z,8.65
2023-03-29T21:10:12.369Z,7.38
2023-03-29T21:12:40.015Z,6.05
2023-03-29T21:15:08.807Z,7.38
2023-03-29T21:17:36.412Z,6.10
2023-03-29T21:20:07.368Z,6.47
2023-03-29T21:22:34.958Z,7.82
2023-03-29T21:25:01.715Z,6.93
2023-03-29T21:27:28.287Z,6.45
2023-03-29T21:29:54.853Z,6.68
2023-03-29T21:32:21.417Z,6.22
2023-03-29T21:34:47.986Z,4.93
2023-03-29T21:37:15.274Z,6.88
2023-03-29T21:39:41.901Z,7.35
2023-03-29T21:42:08.456Z,5.28
2023-03-29T21:44:34.985Z,6.93
2023-03-29T21:47:01.721Z,7.50
2023-03-29T21:49:30.605Z,6.85
2023-03-29T21:51:57.119Z,6.72
2023-03-29T21:54:23.778Z,6.80
2023-03-29T21:56:50.554Z,6.97
2023-03-29T21:59:17.071Z,6.13
2023-03-29T22:01:43.644Z,5.75
2023-03-29T22:04:10.331Z,5.18
2023-03-29T22:06:36.990Z,5.70
2023-03-29T22:09:05.114Z,5.93
2023-03-29T22:11:33.695Z,4.95
2023-03-29T22:14:00.275Z,6.03
2023-03-29T22:16:28.376Z,6.53
2023-03-29T22:18:55.179Z,6.60
2023-03-29T22:21:24.271Z,6.13
2023-03-29T22:23:54.065Z,5.78
2023-03-29T22:26:23.559Z,5.95
2023-03-29T22:28:51.707Z,5.72
2023-03-29T22:31:20.730Z,6.00
2023-03-29T22:33:47.767Z,6.10
2023-03-29T22:36:21.024Z,6.10
2023-03-29T22:38:49.139Z,5.95
2023-03-29T22:41:18.212Z,6.50
2023-03-29T22:43:45.348Z,4.85
2023-03-29T22:46:13.920Z,5.75
2023-03-29T22:48:40.732Z,5.40
2023-03-29T22:51:07.529Z,6.35
2023-03-29T22:53:34.191Z,5.38
2023-03-29T22:56:00.874Z,5.32
2023-03-29T22:58:29.395Z,5.75
2023-03-29T23:00:57.640Z,5.80
2023-03-29T23:03:24.377Z,5.57
2023-03-29T23:05:56.337Z,5.07
2023-03-29T23:08:24.181Z,5.65
2023-03-29T23:10:51.136Z,5.28
2023-03-29T23:13:25.817Z,5.90
2023-03-29T23:15:54.741Z,5.07
2023-03-29T23:18:23.535Z,5.30
2023-03-29T23:20:53.185Z,5.13
2023-03-29T23:23:20.518Z,4.65
2023-03-29T23:25:48.852Z,5.07
2023-03-29T23:28:21.486Z,6.28
2023-03-29T23:30:55.183Z,5.65
2023-03-29T23:33:21.950Z,5.20
2023-03-29T23:35:48.587Z,4.93
2023-03-29T23:38:15.187Z,5.82
2023-03-29T23:40:41.698Z,5.40
2023-03-29T23:43:09.056Z,5.78
2023-03-29T23:45:36.789Z,5.43
2023-03-29T23:48:03.679Z,4.88
2023-03-29T23:50:30.448Z,4.60
2023-03-29T23:52:58.301Z,5.38
2023-03-29T23:55:25.009Z,5.03
2023-03-29T23:57:51.761Z,4.78
